LIMLLIPX

Guest
Details From LIML - Milano Linate
To LIPX - VILLAFRANCA
Flight Number -
Tags generated
Created
Modified
Stats Distance 68 nm / 127 km
Max Altitude 8,000 ft / 2,438 m
Waypoints 3
Social Downloads 3
Likes 0
Share VATSIM

Download

Looking for another format? Having issues loading an existing format? Contact us
Advertisement - Login to hide

Notes

Basic altitude profile: - Ascent Rate: 2500ft/min - Ascent Speed: 250kts - Cruise Altitude: 35000ft - Cruise Speed: 420kts - Descent Rate: 1500ft/min - Descent Speed: 250kts Options: - Use NATs: yes - Use PACOTS: yes - Use low airways: yes - Use high airways: yes

Route

LIML KAMPA LIPX

ID Type Via Altitude Latitude Longitude Leg Dist Tot Dist Heading (true) Name
O LIML APT - 0 ft / 0 m 45.45030˚ 9.27280˚ - 0 nm - Milano Linate
KAMPA FIX - 8,000 ft / 2,438 m 45.39000˚ 10.00000˚ 30 nm 30 nm 96° / 97° -
O LIPX APT - 0 ft / 0 m 45.39694˚ 10.89042˚ 37 nm 68 nm 89° / 90° VILLAFRANCA

Altitude Profile

Advertisement - Login to hide

LIML

Details ICAO LIML (LIN)
Name Milano Linate
Region Italy
Timezone Europe/Rome (UTC+1.0)
Stats Elevation 353 ft / 108 m (AMSL)
Location 45.450302° 9.272801°
Runways 2
Magnetic Variation 2.499° E

METAR

LIML 110420Z 20003KT 1000 R36/P2000VP2000U -DZSN BKN002 OVC020 00/M00 Q1001 NOSIG

Decode

TAF

TAF LIML 102300Z 1100/1124 VRB05KT 2000 SN BKN012 BKN040 BECMG 1107/1109 5000 RA

Decode

Departure Runways

ID Width Length Bearing (true) Bearing (mag) Surface Threshold Offset Overrun Length
17 72 ft / 22 m 1,975 ft / 602 m 175.64° 173.14° Asphalt 200 ft / 61 m 0 ft / 0 m
18 197 ft / 60 m 8,017 ft / 2,443 m 175.67° 173.17° Asphalt 0 ft / 0 m 190 ft / 58 m
35 72 ft / 22 m 1,975 ft / 602 m 355.64° 353.14° Asphalt 200 ft / 61 m 0 ft / 0 m
36 197 ft / 60 m 8,017 ft / 2,443 m 355.68° 353.18° Asphalt 0 ft / 0 m 980 ft / 299 m

LIPX

Details ICAO LIPX (VRN)
Name VILLAFRANCA
Region Italy
Timezone Europe/Rome (UTC+1.0)
Stats Elevation 239 ft / 73 m (AMSL)
Location 45.396942° 10.890418°
Runways 1
Magnetic Variation 2.859° E

METAR

LIPX 110420Z VRB01KT 3000 BR SCT020 BKN040 00/M00 Q1001 R04/6907//

Decode

TAF

Not found

Destination Runways

ID Width Length Bearing (true) Bearing (mag) Surface Threshold Offset Overrun Length
04 148 ft / 45 m 10,072 ft / 3,070 m 45.79° 42.93° Asphalt 189 ft / 58 m 815 ft / 248 m
22 148 ft / 45 m 10,072 ft / 3,070 m 225.81° 222.95° Asphalt 1,345 ft / 410 m 189 ft / 58 m

Approach Navaids

Runway Type Ident Frequency Range Bearing (true) Bearing (mag) Slope Elevation
04 Localiser IVF 110.10 MHz 18 nm / 33 km 45.76° 42.90° - 248 ft / 76 m (AMSL)
04 Glidescope IVF 110.10 MHz 10 nm / 19 km 45.80° 42.94° 3.00° 272 ft / 83 m (AMSL)
04 DME IVF 110.10 MHz 18 nm / 33 km - - - 248 ft / 76 m (AMSL)

Popular Alternatives